createdAt,value
2023-04-21T00:00:10.036Z,78.68
2023-04-21T00:05:24.657Z,72.00
2023-04-21T00:08:04.064Z,73.35
2023-04-21T00:10:48.294Z,70.85
2023-04-21T00:13:17.891Z,73.80
2023-04-21T00:15:47.085Z,70.72
2023-04-21T00:18:17.058Z,74.20
2023-04-21T00:20:48.585Z,70.47
2023-04-21T00:25:46.573Z,71.82
2023-04-21T00:28:16.389Z,76.70
2023-04-21T00:30:45.218Z,77.10
2023-04-21T00:36:05.596Z,80.22
2023-04-21T00:38:41.338Z,79.10
2023-04-21T00:41:12.870Z,83.95
2023-04-21T00:44:02.990Z,78.82
2023-04-21T00:49:14.897Z,81.20
2023-04-21T00:51:50.446Z,83.68
2023-04-21T00:54:18.825Z,79.63
2023-04-21T00:56:46.127Z,84.85
2023-04-21T00:59:24.821Z,82.70
2023-04-21T01:01:57.258Z,81.60
2023-04-21T01:04:25.188Z,81.78
2023-04-21T01:06:54.026Z,81.05
2023-04-21T01:09:23.513Z,82.43
2023-04-21T01:12:12.335Z,80.00
2023-04-21T01:14:46.556Z,92.60
2023-04-21T01:17:15.690Z,85.38
2023-04-21T01:19:45.459Z,85.60
2023-04-21T01:22:15.692Z,89.97
2023-04-21T01:24:44.796Z,85.57
2023-04-21T01:27:16.705Z,88.70
2023-04-21T01:29:49.384Z,89.22
2023-04-21T01:32:20.098Z,93.72
2023-04-21T01:34:47.610Z,92.22
2023-04-21T01:37:27.492Z,94.47
2023-04-21T01:39:58.806Z,90.17
2023-04-21T01:42:35.345Z,94.40
2023-04-21T01:45:02.930Z,90.22
2023-04-21T01:47:41.656Z,91.60
2023-04-21T01:50:16.356Z,90.10
2023-04-21T01:52:43.677Z,98.97
2023-04-21T01:55:16.184Z,92.40
2023-04-21T01:57:43.336Z,91.00
2023-04-21T02:00:17.420Z,93.25
2023-04-21T02:02:45.800Z,93.47
2023-04-21T02:05:15.228Z,94.95
2023-04-21T02:07:46.235Z,93.88
2023-04-21T02:10:13.523Z,97.13
2023-04-21T02:12:45.746Z,95.78
2023-04-21T02:15:12.730Z,95.28
2023-04-21T02:17:45.572Z,92.15
2023-04-21T02:20:13.600Z,93.22
2023-04-21T02:22:41.985Z,100.80
2023-04-21T02:25:08.971Z,99.50
2023-04-21T02:27:36.720Z,102.80
2023-04-21T02:32:50.614Z,99.85
2023-04-21T02:35:20.389Z,102.97
2023-04-21T02:37:48.391Z,96.97
2023-04-21T02:40:15.713Z,109.28
2023-04-21T02:42:42.341Z,98.72
2023-04-21T02:45:13.111Z,96.95
2023-04-21T02:47:42.149Z,101.63
2023-04-21T02:50:11.313Z,99.80
2023-04-21T02:52:38.729Z,94.55
2023-04-21T02:55:08.131Z,99.88
2023-04-21T03:00:34.000Z,97.85
2023-04-21T03:03:05.482Z,99.28
2023-04-21T03:05:41.704Z,95.60
2023-04-21T03:08:08.898Z,92.80
2023-04-21T03:10:41.750Z,96.57
2023-04-21T03:13:08.544Z,90.43
2023-04-21T03:15:36.964Z,94.72
2023-04-21T03:18:04.603Z,94.93
2023-04-21T03:20:35.563Z,90.60
2023-04-21T03:23:03.755Z,99.75
2023-04-21T03:25:30.715Z,97.85
2023-04-21T03:27:57.401Z,92.40
2023-04-21T03:30:28.016Z,99.90
2023-04-21T03:33:02.798Z,103.60
2023-04-21T03:35:34.666Z,95.28
2023-04-21T03:38:03.872Z,99.70
2023-04-21T03:40:31.903Z,94.35
2023-04-21T03:42:59.073Z,104.25
2023-04-21T03:45:26.510Z,101.78
2023-04-21T03:48:07.427Z,96.82
2023-04-21T03:50:38.630Z,89.15
2023-04-21T03:53:07.394Z,100.60
2023-04-21T03:55:34.527Z,101.30
2023-04-21T03:58:01.249Z,97.65
2023-04-21T04:00:29.280Z,95.35
2023-04-21T04:02:59.533Z,99.13
2023-04-21T04:08:04.623Z,104.18
2023-04-21T04:10:43.607Z,106.60
2023-04-21T04:13:10.360Z,109.38
2023-04-21T04:15:40.619Z,106.35
2023-04-21T04:18:07.384Z,96.18
2023-04-21T04:20:35.030Z,96.53
2023-04-21T04:23:03.163Z,93.35
2023-04-21T04:25:31.541Z,96.40
2023-04-21T04:28:00.035Z,96.50
2023-04-21T04:30:32.283Z,94.72
2023-04-21T04:33:04.283Z,90.25
2023-04-21T04:35:44.595Z,101.30
2023-04-21T04:38:15.505Z,98.18
2023-04-21T04:41:03.364Z,99.03
2023-04-21T04:43:32.743Z,89.07
2023-04-21T04:48:50.531Z,95.68
2023-04-21T04:51:18.845Z,96.07
2023-04-21T04:53:50.746Z,99.30
2023-04-21T04:56:23.757Z,100.72
2023-04-21T04:58:53.133Z,96.70
2023-04-21T05:01:23.414Z,108.07
2023-04-21T05:03:55.119Z,96.65
2023-04-21T05:06:23.418Z,92.80
2023-04-21T05:08:52.015Z,98.05
2023-04-21T05:11:20.484Z,92.25
2023-04-21T05:13:50.721Z,98.97
2023-04-21T05:19:04.432Z,101.75
2023-04-21T05:21:37.394Z,96.18
2023-04-21T05:24:04.413Z,98.75
2023-04-21T05:27:05.368Z,97.80
2023-04-21T05:29:34.423Z,96.50
2023-04-21T05:32:03.386Z,100.70
2023-04-21T05:34:31.005Z,92.18
2023-04-21T05:37:00.173Z,93.93
2023-04-21T05:39:30.395Z,93.43
2023-04-21T05:42:03.129Z,97.60
2023-04-21T05:44:31.426Z,93.43
2023-04-21T05:52:49.043Z,96.22
2023-04-21T05:55:19.857Z,89.13
2023-04-21T06:00:17.863Z,95.53
2023-04-21T06:02:46.424Z,96.78
2023-04-21T06:05:14.253Z,96.43
2023-04-21T06:07:41.367Z,96.88
2023-04-21T06:12:52.376Z,95.55
2023-04-21T06:15:25.537Z,94.93
2023-04-21T06:17:59.233Z,94.35
2023-04-21T06:20:34.462Z,91.43
2023-04-21T06:23:01.342Z,92.78
2023-04-21T06:25:28.627Z,85.78
2023-04-21T06:28:00.134Z,93.38
2023-04-21T06:30:26.802Z,92.45
2023-04-21T06:33:01.246Z,87.15
2023-04-21T06:35:29.253Z,85.45
2023-04-21T06:40:38.100Z,80.90
2023-04-21T06:43:06.686Z,80.00
2023-04-21T06:45:38.006Z,73.85
2023-04-21T06:48:07.537Z,76.30
2023-04-21T06:50:34.211Z,72.40
2023-04-21T06:53:03.954Z,74.97
2023-04-21T06:55:38.765Z,72.27
2023-04-21T07:09:01.989Z,63.33
2023-04-21T07:11:31.862Z,52.30
2023-04-21T07:14:05.444Z,50.92
2023-04-21T07:16:37.509Z,56.45
2023-04-21T07:19:04.711Z,53.45
2023-04-21T07:21:37.306Z,48.88
2023-04-21T07:24:07.947Z,54.22
2023-04-21T07:29:12.909Z,47.83
2023-04-21T07:31:43.536Z,51.80
2023-04-21T07:34:11.098Z,54.92
2023-04-21T07:36:46.904Z,51.33
2023-04-21T07:39:13.659Z,53.13
2023-04-21T07:41:45.012Z,50.78
2023-04-21T07:44:11.617Z,50.03
2023-04-21T07:46:39.497Z,50.60
2023-04-21T07:49:10.325Z,52.38
2023-04-21T07:51:37.376Z,48.30
2023-04-21T07:54:06.486Z,50.67
2023-04-21T07:56:36.191Z,45.90
2023-04-21T07:59:04.098Z,46.03
2023-04-21T08:01:32.846Z,50.80
2023-04-21T08:03:59.696Z,47.75
2023-04-21T08:06:30.202Z,46.58
2023-04-21T08:08:56.970Z,48.90
2023-04-21T08:11:24.052Z,50.00
2023-04-21T08:14:00.441Z,47.75
2023-04-21T08:16:28.689Z,49.53
2023-04-21T08:19:08.031Z,50.97
2023-04-21T08:24:17.180Z,48.60
2023-04-21T08:26:47.485Z,45.20
2023-04-21T08:29:15.444Z,48.00
2023-04-21T08:31:44.577Z,47.88
2023-04-21T08:34:11.877Z,46.97
2023-04-21T08:36:41.118Z,52.15
2023-04-21T08:39:12.066Z,49.55
2023-04-21T08:41:47.355Z,47.83
2023-04-21T08:47:04.468Z,49.08
2023-04-21T08:49:42.675Z,45.97
2023-04-21T08:52:20.777Z,48.78
2023-04-21T08:54:52.144Z,45.67
2023-04-21T08:57:22.447Z,48.70
2023-04-21T09:02:18.879Z,45.10
2023-04-21T09:07:49.509Z,46.15
2023-04-21T09:10:24.389Z,43.67
2023-04-21T09:13:00.688Z,40.95
2023-04-21T09:15:29.298Z,42.33
2023-04-21T09:17:57.378Z,44.15
2023-04-21T09:20:28.216Z,42.22
2023-04-21T09:25:40.507Z,43.17
2023-04-21T09:28:14.889Z,44.65
2023-04-21T09:30:44.994Z,38.92
2023-04-21T09:33:28.942Z,40.63
2023-04-21T09:36:03.101Z,41.35
2023-04-21T09:41:01.464Z,41.30
2023-04-21T09:43:28.337Z,42.95
2023-04-21T09:45:56.560Z,43.05
2023-04-21T09:48:27.356Z,39.42
2023-04-21T09:53:43.081Z,41.35
2023-04-21T09:56:17.493Z,37.97
2023-04-21T09:58:56.887Z,40.22
2023-04-21T10:01:30.922Z,37.70
2023-04-21T10:03:58.651Z,37.55
2023-04-21T10:06:30.998Z,39.20
2023-04-21T10:09:09.434Z,40.17
2023-04-21T10:11:38.908Z,38.65
2023-04-21T10:14:12.322Z,40.53
2023-04-21T10:16:39.926Z,37.22
2023-04-21T10:19:26.323Z,34.90
2023-04-21T10:22:05.675Z,39.92
2023-04-21T10:24:43.290Z,34.95
2023-04-21T10:27:15.865Z,32.08
2023-04-21T10:29:56.743Z,35.33
2023-04-21T10:32:45.818Z,31.90
2023-04-21T10:35:23.416Z,33.83
2023-04-21T10:37:55.029Z,31.52
2023-04-21T10:40:43.020Z,31.73
2023-04-21T10:43:49.179Z,30.25
2023-04-21T10:46:39.665Z,32.88
2023-04-21T10:49:23.380Z,31.98
2023-04-21T10:52:09.027Z,34.20
2023-04-21T10:54:41.772Z,32.58
2023-04-21T10:57:14.380Z,31.25
2023-04-21T10:59:42.639Z,31.95
2023-04-21T11:02:15.266Z,32.40
2023-04-21T11:04:51.360Z,30.63
2023-04-21T11:07:28.056Z,28.27
2023-04-21T11:12:43.797Z,25.67
2023-04-21T11:15:19.932Z,28.33
2023-04-21T11:17:47.885Z,28.73
2023-04-21T11:20:16.118Z,28.42
2023-04-21T11:22:45.850Z,25.75
2023-04-21T11:27:59.864Z,26.02
2023-04-21T11:30:44.515Z,26.23
2023-04-21T11:33:18.829Z,28.67
2023-04-21T11:35:46.039Z,28.17
2023-04-21T11:38:15.033Z,27.33
2023-04-21T11:40:51.269Z,28.00
2023-04-21T11:43:21.161Z,24.00
2023-04-21T11:45:51.828Z,26.55
2023-04-21T11:50:55.658Z,30.05
2023-04-21T11:53:26.034Z,28.08
2023-04-21T11:55:54.031Z,25.58
2023-04-21T11:58:24.377Z,26.48
2023-04-21T12:00:54.135Z,27.55
2023-04-21T12:03:21.388Z,28.65
2023-04-21T12:05:56.948Z,24.25
2023-04-21T12:08:26.866Z,26.75
2023-04-21T12:10:57.092Z,24.90
2023-04-21T12:13:24.435Z,23.63
2023-04-21T12:15:58.590Z,25.65
2023-04-21T12:18:36.756Z,23.65
2023-04-21T12:21:09.099Z,24.92
2023-04-21T12:23:40.782Z,22.38
2023-04-21T12:26:14.578Z,23.10
2023-04-21T12:28:44.960Z,18.92
2023-04-21T12:31:25.536Z,19.17
2023-04-21T12:36:25.432Z,18.73
2023-04-21T12:39:04.085Z,19.80
2023-04-21T12:41:33.678Z,18.83
2023-04-21T12:44:06.984Z,17.80
2023-04-21T12:46:37.652Z,18.42
2023-04-21T12:49:11.757Z,19.02
2023-04-21T12:51:42.738Z,19.83
2023-04-21T12:54:18.804Z,16.27
2023-04-21T12:56:47.179Z,16.70
2023-04-21T12:59:21.676Z,19.05
2023-04-21T13:01:56.365Z,17.85
2023-04-21T13:04:26.927Z,16.33
2023-04-21T13:06:55.074Z,16.95
2023-04-21T13:09:30.264Z,17.42
2023-04-21T13:12:00.224Z,16.10
2023-04-21T13:14:34.419Z,18.45
2023-04-21T13:22:44.726Z,17.83
2023-04-21T13:28:56.646Z,18.55
2023-04-21T13:31:27.817Z,16.80
2023-04-21T13:33:56.115Z,14.60
2023-04-21T13:36:23.857Z,15.07
2023-04-21T13:39:03.896Z,15.13
2023-04-21T13:41:31.293Z,15.90
2023-04-21T13:44:03.390Z,14.68
2023-04-21T13:46:33.370Z,14.07
2023-04-21T13:49:02.487Z,16.73
2023-04-21T13:51:32.422Z,15.10
2023-04-21T13:54:00.855Z,14.50
2023-04-21T13:56:28.946Z,15.75
2023-04-21T14:01:41.925Z,14.70
2023-04-21T14:04:09.280Z,13.05
2023-04-21T14:06:36.104Z,11.57
2023-04-21T14:09:04.786Z,14.25
2023-04-21T14:11:32.634Z,13.32
2023-04-21T14:14:09.620Z,13.20
2023-04-21T14:16:37.316Z,11.20
2023-04-21T14:19:09.231Z,11.00
2023-04-21T14:21:36.211Z,12.98
2023-04-21T14:24:05.479Z,13.35
2023-04-21T14:26:39.576Z,13.38
2023-04-21T14:29:09.049Z,13.85
2023-04-21T14:31:39.976Z,9.73
2023-04-21T14:34:06.829Z,10.63
2023-04-21T14:36:35.433Z,12.45
2023-04-21T14:39:15.270Z,13.05
2023-04-21T14:41:46.682Z,12.15
2023-04-21T14:44:15.007Z,10.82
2023-04-21T14:47:01.454Z,11.90
2023-04-21T14:49:37.486Z,11.00
2023-04-21T14:52:07.629Z,10.23
2023-04-21T14:54:34.389Z,11.70
2023-04-21T14:57:19.763Z,10.02
2023-04-21T14:59:57.704Z,10.85
2023-04-21T15:02:32.461Z,10.45
2023-04-21T15:05:14.124Z,12.07
2023-04-21T15:07:43.302Z,12.13
2023-04-21T15:10:12.496Z,11.80
2023-04-21T15:12:45.938Z,9.65
2023-04-21T15:15:13.123Z,10.05
2023-04-21T15:17:49.652Z,11.32
2023-04-21T15:23:05.243Z,9.93
2023-04-21T15:25:32.044Z,12.88
2023-04-21T15:28:03.009Z,9.10
2023-04-21T15:33:16.687Z,11.52
2023-04-21T15:35:43.846Z,13.43
2023-04-21T15:38:13.819Z,10.45
2023-04-21T15:43:28.713Z,10.48
2023-04-21T15:46:04.040Z,9.02
2023-04-21T15:48:32.262Z,12.00
2023-04-21T15:51:03.049Z,11.38
2023-04-21T15:53:35.894Z,10.25
2023-04-21T15:56:10.710Z,10.38
2023-04-21T15:58:40.082Z,10.55
2023-04-21T16:01:08.410Z,9.50
2023-04-21T16:03:37.408Z,10.25
2023-04-21T16:08:45.607Z,10.10
2023-04-21T16:11:17.068Z,10.30
2023-04-21T16:13:47.738Z,10.98
2023-04-21T16:16:26.288Z,9.32
2023-04-21T16:19:01.999Z,11.38
2023-04-21T16:21:43.082Z,10.70
2023-04-21T16:24:17.937Z,8.60
2023-04-21T16:26:49.166Z,9.77
2023-04-21T16:32:01.855Z,7.85
2023-04-21T16:34:32.245Z,10.93
2023-04-21T16:37:02.810Z,10.25
2023-04-21T16:42:15.120Z,8.73
2023-04-21T16:44:46.972Z,9.10
2023-04-21T16:47:17.345Z,13.57
2023-04-21T16:55:12.389Z,8.85
2023-04-21T16:57:39.381Z,8.88
2023-04-21T17:00:12.638Z,11.52
2023-04-21T17:02:42.419Z,9.88
2023-04-21T17:05:09.903Z,10.93
2023-04-21T17:07:39.770Z,7.63
2023-04-21T17:10:09.867Z,8.48
2023-04-21T17:12:39.500Z,7.30
2023-04-21T17:15:07.752Z,10.13
2023-04-21T17:17:46.207Z,8.18
2023-04-21T17:22:56.374Z,9.00
2023-04-21T17:25:31.772Z,9.10
2023-04-21T17:28:04.017Z,10.00
2023-04-21T17:30:33.197Z,7.97
2023-04-21T17:33:15.978Z,9.20
2023-04-21T17:38:43.289Z,7.22
2023-04-21T17:41:21.749Z,9.95
2023-04-21T17:47:18.297Z,6.93
2023-04-21T17:49:47.163Z,7.82
2023-04-21T17:52:16.964Z,9.77
2023-04-21T17:54:56.518Z,9.52
2023-04-21T18:00:37.414Z,6.57
2023-04-21T18:03:12.319Z,9.10
2023-04-21T18:05:45.508Z,8.73
2023-04-21T18:13:56.092Z,5.43
2023-04-21T18:19:20.107Z,2.67
2023-04-21T18:22:41.303Z,5.05
2023-04-21T18:25:40.880Z,2.65
2023-04-21T18:37:10.658Z,5.35
2023-04-21T18:46:06.080Z,5.65
2023-04-21T18:51:33.185Z,7.72
2023-04-21T18:54:06.413Z,7.10
2023-04-21T19:00:04.400Z,7.00
2023-04-21T19:02:40.277Z,12.07
2023-04-21T19:05:15.892Z,7.70
2023-04-21T19:13:17.361Z,7.78
2023-04-21T19:19:07.787Z,6.80
2023-04-21T19:27:55.735Z,5.50
2023-04-21T19:39:24.328Z,8.88
2023-04-21T19:41:59.128Z,6.97
2023-04-21T19:44:39.594Z,4.97
2023-04-21T19:49:52.925Z,8.65
2023-04-21T20:01:11.954Z,5.90
2023-04-21T20:03:48.496Z,7.03
2023-04-21T20:06:19.326Z,7.22
2023-04-21T20:08:47.049Z,7.10
2023-04-21T20:11:26.188Z,5.85
2023-04-21T20:14:00.119Z,7.18
2023-04-21T20:19:48.332Z,7.70
2023-04-21T20:22:34.162Z,8.55
2023-04-21T20:25:07.849Z,8.30
2023-04-21T20:27:43.955Z,8.25
2023-04-21T20:30:34.848Z,10.00
2023-04-21T20:38:51.810Z,8.57
2023-04-21T20:41:27.313Z,9.05
2023-04-21T20:44:07.998Z,8.68
2023-04-21T20:49:29.971Z,10.43
2023-04-21T21:09:06.217Z,8.60
2023-04-21T21:12:32.704Z,9.02
2023-04-21T21:15:07.237Z,9.77
2023-04-21T21:17:51.008Z,9.23
2023-04-21T21:20:21.050Z,12.07
2023-04-21T21:22:59.836Z,9.73
2023-04-21T21:28:25.107Z,8.10
2023-04-21T21:30:55.005Z,8.93
2023-04-21T21:38:56.512Z,10.73
2023-04-21T21:41:40.570Z,10.23
2023-04-21T21:44:16.298Z,10.23
2023-04-21T21:46:55.109Z,11.55
2023-04-21T21:52:16.737Z,10.60
2023-04-21T21:57:48.633Z,10.27
2023-04-21T22:00:33.090Z,9.20
2023-04-21T22:05:50.237Z,11.27
2023-04-21T22:14:47.558Z,11.02
2023-04-21T22:17:48.414Z,11.32
2023-04-21T22:29:51.714Z,12.30
2023-04-21T22:35:02.413Z,13.93
2023-04-21T22:37:37.956Z,29.85
2023-04-21T22:40:21.658Z,19.90
2023-04-21T22:42:51.968Z,21.10
2023-04-21T22:45:23.484Z,15.95
2023-04-21T22:47:55.420Z,14.70
2023-04-21T22:50:23.809Z,12.48
2023-04-21T22:52:56.039Z,13.80
2023-04-21T22:55:26.971Z,13.52
2023-04-21T23:00:46.983Z,12.65
2023-04-21T23:03:14.522Z,14.55
2023-04-21T23:05:46.226Z,13.90
2023-04-21T23:08:18.834Z,11.98
2023-04-21T23:10:53.012Z,12.43
2023-04-21T23:13:24.287Z,11.13
2023-04-21T23:16:03.203Z,11.48
2023-04-21T23:21:14.144Z,11.75
2023-04-21T23:23:46.826Z,11.35
2023-04-21T23:26:17.620Z,10.43
2023-04-21T23:28:46.357Z,11.07
2023-04-21T23:31:17.602Z,13.68
2023-04-21T23:33:54.435Z,10.10
2023-04-21T23:36:37.160Z,11.80
2023-04-21T23:39:07.712Z,8.82
2023-04-21T23:41:51.546Z,10.93
2023-04-21T23:44:22.547Z,10.77
2023-04-21T23:46:53.015Z,11.85
2023-04-21T23:49:31.713Z,11.80
2023-04-21T23:54:40.553Z,12.80
2023-04-21T23:57:13.465Z,11.23
2023-04-21T23:59:45.498Z,10.25
